ADDS METAR Data INFO
IDs: Format: Raw Decoded Include TAF

Data at: 0030 UTC 15 Dec 2017

KBLM 142356Z AUTO 29006KT 10SM CLR M03/M11 A3003 RMK AO2 SLP173 T10331111 10006 21033 53040 FZRANO
KBLM 142256Z AUTO 29007KT 10SM CLR M03/M10 A2998 RMK AO2 SLP158 T10281100 FZRANO
KBLM 142156Z AUTO 29006G14KT 10SM CLR M02/M10 A2994 RMK AO2 SLP144 T10221100 FZRANO
KBLM 142056Z AUTO 28015G21KT 10SM FEW040 M01/M10 A2991 RMK AO2 PK WND 28027/2002 SLP134 T10111100 FZRANO
KBLM 141956Z AUTO 28013G22KT 10SM FEW040 01/M09 A2986 RMK AO2 SLP115 T00061089 FZRANO
KBLM 141856Z AUTO 30015KT 10SM SCT036 00/M08 RMK AO2 SLPNO T00001078 FZRANO $
KBLM 141820Z AUTO 31015G21KT 10SM SCT027 BKN035 00/M07 A2981 RMK AO2 FZRANO
KBLM 141756Z AUTO 28012KT 10SM BKN027 00/M06 A2979 RMK AO2 SLP094 6//// T00001061 10017 21039 53023 FZRANO
KBLM 141712Z AUTO 31012KT 10SM BKN025 BKN030 01/M06 A2976 RMK AO2 FZRANO
KBLM 141656Z AUTO 30009KT 10SM SCT023 01/M06 A2976 RMK AO2 SLP082 T00111056 FZRANO
KBLM 141651Z AUTO 31013KT 10SM SCT021 01/M06 A2976 RMK AO2 FZRANO
KBLM 141619Z AUTO 31015KT 10SM BKN021 01/M05 A2974 RMK AO2 FZRANO
KBLM 141556Z AUTO 31013KT 10SM SCT017 00/M04 A2972 RMK AO2 SLP070 T00001044 FZRANO
KBLM 141531Z AUTO 32014KT 10SM BKN015 BKN019 00/M04 A2971 RMK AO2 FZRANO
KBLM 141456Z AUTO 30011KT 10SM FEW035 01/M03 A2968 RMK AO2 SNB01E12 SLP057 P0000 60000 T00061033 53045 FZRANO
KBLM 141356Z AUTO 31006KT 9SM FEW060 M02/M03 A2963 RMK AO2 SLP040 T10221033 FZRANO
KBLM 141256Z AUTO 31005KT 10SM SCT065 BKN100 M03/M04 A2958 RMK AO2 SLP022 T10331044 FZRANO
KBLM 141156Z AUTO 32004KT 10SM OVC034 M03/M04 A2955 RMK AO2 SNE50 SLP011 P0000 6//// 7//// T10331044 11033 21050 FZRANO
KBLM 141056Z AUTO 30005KT 9SM -SN BKN046 OVC070 M04/M05 A2953 RMK AO2 SNB42 SLP005 P0000 T10391050 FZRANO
KBLM 140956Z AUTO 31003KT 10SM SCT060 BKN080 OVC110 M04/M06 RMK AO2 SLPNO T10441056 FZRANO $
KBLM 140856Z AUTO 00000KT 10SM OVC065 M04/M06 A2953 RMK AO2 SNE20 SLP004 P0000 60000 T10441056 58038 FZRANO
KBLM 140756Z AUTO 00000KT 9SM -SN OVC065 M04/M06 A2958 RMK AO2 SLP021 P0000 T10441056 FZRANO
KBLM 140719Z AUTO 00000KT 9SM -SN FEW010 SCT021 OVC060 M05/M06 A2960 RMK AO2 P0000 FZRANO
KBLM 140656Z AUTO 09004KT 9SM -SN OVC021 M05/M06 A2961 RMK AO2 SLP032 P0000 T10501061 FZRANO
KBLM 140637Z AUTO 12003KT 5SM -SN BR SCT011 OVC021 M05/M06 A2963 RMK AO2 P0000 FZRANO
KBLM 140630Z AUTO 11003KT 3SM -SN BR BKN013 OVC021 M05/M06 RMK AO2 P0000 FZRANO $
KBLM 140613Z AUTO 12003KT 2SM -SN BR BKN013 OVC018 M05/M06 A2964 RMK AO2 P0000 FZRANO
KBLM 140556Z AUTO 10004KT 1 3/4SM -SN BR OVC018 M05/M06 A2964 RMK AO2 SLP043 P0001 6//// T10501061 11033 21050 FZRANO
KBLM 140532Z AUTO 11003KT 1 1/4SM -SN BR OVC016 M05/M06 A2966 RMK AO2 P0001 FZRANO
KBLM 140529Z AUTO 00000KT 1SM -SN BR OVC014 M05/M06 A2966 RMK AO2 PRESFR P0001 FZRANO RVRNO
KBLM 140456Z AUTO 22004KT 1 1/4SM -SN BR BKN012 OVC035 M05/M06 RMK AO2 VIS 3/4V2 SLPNO P0000 T10501061 410111072 FZRANO $
KBLM 140448Z AUTO 24003KT 1SM -SN BR BKN010 OVC035 M05/M06 A2971 RMK AO2 P0000 FZRANO RVRNO
KBLM 140431Z AUTO 23007KT 1 3/4SM -SN BR BKN035 OVC045 M04/M07 A2971 RMK AO2 P0000 FZRANO
KBLM 140356Z AUTO 22010KT 9SM -SN OVC045 M03/M11 A2970 RMK AO2 SNB33 SLP062 P0000 T10331111 FZRANO
KBLM 140256Z AUTO 22005KT 10SM BKN095 OVC120 M03/M13 A2970 RMK AO2 SLP062 6//// T10331133 56005 FZRANO
KBLM 140156Z AUTO 23005KT 10SM OVC110 M04/M13 A2970 RMK AO2 SLP063 T10391133 FZRANO
KBLM 140056Z AUTO 26010KT 10SM SCT110 M03/M14 A2970 RMK AO2 SLP064 T10331139 FZRANO
KBLM 132356Z AUTO 25009KT 10SM CLR M03/M13 A2972 RMK AO2 SLP068 T10331133 11011 21033 51022 FZRANO
KBLM 132256Z AUTO 24010KT 10SM CLR M03/M13 A2971 RMK AO2 SLP066 T10281133 FZRANO
KBLM 132156Z AUTO 26010G17KT 10SM CLR M02/M13 A2968 RMK AO2 SLP056 T10221133 FZRANO TSNO
KBLM 132056Z AUTO 27016G26KT 10SM CLR M02/M13 A2965 RMK AO2 PK WND 28028/2007 SLP046 T10221133 51022 FZRANO
KBLM 131956Z AUTO 26021G33KT 10SM CLR M01/M13 A2963 RMK AO2 PK WND 26033/1948 SLP039 T10111133 FZRANO
KBLM 131856Z AUTO 27020G31KT 10SM FEW055 M01/M13 A2961 RMK AO2 PK WND 27033/1827 SLP032 T10111133 FZRANO
KBLM 131756Z AUTO 28020G33KT 10SM CLR M02/M14 A2959 RMK AO2 PK WND 27038/1721 SLP024 T10171139 11011 21072 56006 FZRANO
KBLM 131656Z AUTO 26023G31KT 10SM FEW050 M02/M14 A2959 RMK AO2 PK WND 29035/1606 SLP024 T10171139 FZRANO
KBLM 131556Z AUTO 27016G30KT 10SM SCT050 M03/M13 A2960 RMK AO2 PK WND 27033/1521 SLP029 T10281133 FZRANO
KBLM 131456Z AUTO 26017G35KT 10SM SCT048 M04/M14 A2960 RMK AO2 PK WND 24035/1447 SLP030 T10391139 51009 FZRANO
KBLM 131356Z AUTO 27016G30KT 10SM CLR M05/M14 A2960 RMK AO2 PK WND 27033/1336 SLP028 T10501144 FZRANO
KBLM 131256Z AUTO 27016G31KT 10SM CLR M06/M14 A2959 RMK AO2 PK WND 27031/1248 SLP026 T10611144 FZRANO